Terminal Aerodrome Forecast
Issued by NWS

Home | Current Version | Previous Version | Text Only | Print | Product List | Glossary On
Versions: 1 2 3 4 5 6 7 8 9 10 11 12 13 14 15 16 17 18 19 20 21 22 23
000
FTUS44 KOUN 261132
TAFGAG
TAF
KGAG 261132Z 2612/2712 07014G20KT 4SM BR OVC006
      TEMPO 2612/2615 1SM BR OVC002
     FM261700 08013G21KT P6SM OVC025
     FM262100 08014G21KT P6SM BKN040
     FM270000 05015G23KT P6SM OVC030
      TEMPO 2700/2703 3SM -TSRA BKN015CB
     FM270300 07016G24KT 3SM TSRA BR OVC010CB
      TEMPO 2703/2706 1SM TSRA BR OVC007CB=

USA.gov is the U.S. government's official web portal to all federal, state and local government web resources and services.